Time,TemperatureF,DewpointF,PressureIn,WindDirection,WindDirectionDegrees,WindSpeedMPH,WindSpeedGustMPH,Humidity,HourlyPrecipIn,Conditions,Clouds,dailyrainin,SoftwareType,DateUTC
2013-03-24 00:03:00,36.0,33.0,29.83,SE,125,1.0,3.0,88,0.00,,,0.00,,2013-03-24 04:03:00,
2013-03-24 00:13:00,36.0,33.0,29.83,SE,125,1.0,3.0,88,0.00,,,0.00,,2013-03-24 04:13:00,
2013-03-24 01:00:00,41.0,31.0,29.78,SE,138,5.0,13.0,68,0.00,,,0.00,,2013-03-24 05:00:00,
2013-03-24 01:03:00,41.0,31.0,29.79,South,178,4.0,12.0,67,0.00,,,0.00,,2013-03-24 05:03:00,
2013-03-24 01:13:00,41.0,31.0,29.79,South,178,4.0,12.0,67,0.00,,,0.00,,2013-03-24 05:13:00,
2013-03-24 01:23:00,41.0,31.0,29.78,SE,138,5.0,13.0,68,0.00,,,0.00,,2013-03-24 05:23:00,
2013-03-24 01:32:00,41.0,31.0,29.78,SE,138,5.0,13.0,68,0.00,,,0.00,,2013-03-24 05:32:00,
2013-03-24 01:42:00,41.0,31.0,29.78,SE,138,5.0,13.0,68,0.00,,,0.00,,2013-03-24 05:42:00,
2013-03-24 01:52:00,41.0,31.0,29.78,SE,138,5.0,13.0,68,0.00,,,0.00,,2013-03-24 05:52:00,
2013-03-24 02:22:00,41.0,32.0,29.80,South,176,6.0,12.0,71,0.00,,,0.00,,2013-03-24 06:22:00,
2013-03-24 02:32:00,42.0,33.0,29.80,South,178,2.0,17.0,70,0.00,,,0.00,,2013-03-24 06:32:00,
2013-03-24 02:42:00,42.0,33.0,29.80,South,178,2.0,17.0,70,0.00,,,0.00,,2013-03-24 06:42:00,
2013-03-24 02:52:00,42.0,33.0,29.80,South,178,2.0,17.0,70,0.00,,,0.00,,2013-03-24 06:52:00,
2013-03-24 03:02:00,42.0,33.0,29.78,SSE,152,1.0,10.0,70,0.00,,,0.00,,2013-03-24 07:02:00,
2013-03-24 03:12:00,42.0,33.0,29.78,SSE,152,1.0,10.0,70,0.00,,,0.00,,2013-03-24 07:12:00,
2013-03-24 03:22:00,41.0,33.0,29.77,ESE,116,5.0,10.0,72,0.00,,,0.00,,2013-03-24 07:22:00,
2013-03-24 03:30:00,40.0,33.0,29.75,SE,125,1.0,5.0,77,0.01,,,0.01,,2013-03-24 07:30:00,
2013-03-24 03:32:00,41.0,33.0,29.77,ESE,116,5.0,10.0,72,0.00,,,0.00,,2013-03-24 07:32:00,
2013-03-24 03:42:00,41.0,33.0,29.77,ESE,116,5.0,10.0,72,0.00,,,0.00,,2013-03-24 07:42:00,
2013-03-24 03:52:00,40.0,33.0,29.75,SE,125,1.0,5.0,77,0.01,,,0.01,,2013-03-24 07:52:00,
2013-03-24 04:03:00,40.0,33.0,29.75,SE,125,1.0,5.0,77,0.01,,,0.01,,2013-03-24 08:03:00,
2013-03-24 04:12:00,40.0,33.0,29.75,SE,125,1.0,5.0,77,0.01,,,0.01,,2013-03-24 08:12:00,
2013-03-24 04:22:00,40.0,33.0,29.75,SE,125,1.0,5.0,77,0.01,,,0.01,,2013-03-24 08:22:00,
2013-03-24 04:52:00,39.0,34.0,29.72,South,191,4.0,12.0,83,0.02,,,0.03,,2013-03-24 08:52:00,
2013-03-24 05:02:00,39.0,34.0,29.72,South,191,4.0,12.0,83,0.02,,,0.03,,2013-03-24 09:02:00,
2013-03-24 05:12:00,39.0,34.0,29.72,South,191,4.0,12.0,83,0.02,,,0.03,,2013-03-24 09:12:00,
2013-03-24 05:22:00,39.0,35.0,29.71,South,187,2.0,10.0,84,0.05,,,0.06,,2013-03-24 09:22:00,
2013-03-24 05:33:00,39.0,35.0,29.71,South,171,3.0,10.0,85,0.05,,,0.07,,2013-03-24 09:33:00,
2013-03-24 05:43:00,39.0,35.0,29.71,South,171,3.0,10.0,85,0.05,,,0.07,,2013-03-24 09:43:00,
2013-03-24 05:53:00,39.0,35.0,29.71,SE,140,4.0,10.0,86,0.05,,,0.08,,2013-03-24 09:53:00,
2013-03-24 06:03:00,39.0,35.0,29.68,ESE,106,4.0,9.0,87,0.06,,,0.10,,2013-03-24 10:03:00,
2013-03-24 06:12:00,39.0,35.0,29.68,ESE,106,4.0,9.0,87,0.06,,,0.10,,2013-03-24 10:12:00,
2013-03-24 06:23:00,39.0,35.0,29.68,ESE,106,4.0,9.0,87,0.06,,,0.10,,2013-03-24 10:23:00,
2013-03-24 06:33:00,38.0,35.0,29.68,SE,128,5.0,12.0,88,0.05,,,0.12,,2013-03-24 10:33:00,
2013-03-24 06:42:00,38.0,35.0,29.68,SE,128,5.0,12.0,88,0.05,,,0.12,,2013-03-24 10:42:00,
2013-03-24 06:52:00,38.0,34.0,29.67,South,186,7.0,15.0,87,0.06,,,0.14,,2013-03-24 10:52:00,
2013-03-24 07:03:00,38.0,35.0,29.66,SSE,161,1.0,9.0,88,0.05,,,0.15,,2013-03-24 11:03:00,
2013-03-24 07:12:00,38.0,35.0,29.66,SSE,161,1.0,9.0,88,0.05,,,0.15,,2013-03-24 11:12:00,
2013-03-24 07:22:00,38.0,35.0,29.65,SSE,155,3.0,7.0,88,0.05,,,0.17,,2013-03-24 11:22:00,
2013-03-24 07:33:00,38.0,35.0,29.65,SSW,192,5.0,12.0,88,0.09,,,0.21,,2013-03-24 11:33:00,
2013-03-24 07:42:00,38.0,35.0,29.65,SSW,192,5.0,12.0,88,0.09,,,0.21,,2013-03-24 11:42:00,
2013-03-24 07:52:00,38.0,35.0,29.65,SSW,192,5.0,12.0,88,0.09,,,0.21,,2013-03-24 11:52:00,
2013-03-24 08:03:00,38.0,35.0,29.66,ESE,118,3.0,12.0,88,0.12,,,0.27,,2013-03-24 12:03:00,
2013-03-24 08:12:00,38.0,35.0,29.66,ESE,118,3.0,12.0,88,0.12,,,0.27,,2013-03-24 12:12:00,
2013-03-24 08:23:00,38.0,35.0,29.67,SE,142,1.0,7.0,88,0.13,,,0.30,,2013-03-24 12:23:00,
2013-03-24 08:32:00,38.0,34.0,29.69,SSE,165,5.0,8.0,87,0.14,,,0.35,,2013-03-24 12:32:00,
2013-03-24 08:42:00,38.0,34.0,29.69,SSE,165,5.0,8.0,87,0.14,,,0.35,,2013-03-24 12:42:00,
2013-03-24 08:52:00,37.0,34.0,29.71,SSE,166,1.0,5.0,88,0.18,,,0.41,,2013-03-24 12:52:00,
2013-03-24 09:02:00,37.0,34.0,29.70,South,172,3.0,10.0,88,0.21,,,0.48,,2013-03-24 13:02:00,
2013-03-24 09:12:00,37.0,34.0,29.70,South,172,3.0,10.0,88,0.21,,,0.48,,2013-03-24 13:12:00,
2013-03-24 09:22:00,37.0,34.0,29.70,South,172,3.0,10.0,88,0.21,,,0.48,,2013-03-24 13:22:00,
2013-03-24 09:32:00,37.0,34.0,29.66,North,355,1.0,7.0,88,0.19,,,0.54,,2013-03-24 13:32:00,
2013-03-24 09:42:00,37.0,34.0,29.66,North,355,1.0,7.0,88,0.19,,,0.54,,2013-03-24 13:42:00,
2013-03-24 09:52:00,37.0,34.0,29.66,North,355,1.0,7.0,88,0.19,,,0.54,,2013-03-24 13:52:00,
2013-03-24 10:02:00,37.0,34.0,29.66,North,355,1.0,7.0,88,0.19,,,0.54,,2013-03-24 14:02:00,
2013-03-24 10:12:00,37.0,34.0,29.66,North,355,1.0,7.0,88,0.19,,,0.54,,2013-03-24 14:12:00,
2013-03-24 10:33:00,36.0,33.0,29.69,South,186,5.0,14.0,87,0.03,,,0.57,,2013-03-24 14:33:00,
2013-03-24 10:43:00,36.0,33.0,29.69,South,186,5.0,14.0,87,0.03,,,0.57,,2013-03-24 14:43:00,
2013-03-24 10:53:00,36.0,33.0,29.69,South,186,5.0,14.0,87,0.03,,,0.57,,2013-03-24 14:53:00,
2013-03-24 11:02:00,36.0,33.0,29.69,South,186,5.0,14.0,87,0.03,,,0.57,,2013-03-24 15:02:00,
2013-03-24 11:12:00,36.0,33.0,29.69,South,186,5.0,14.0,87,0.03,,,0.57,,2013-03-24 15:12:00,
2013-03-24 11:22:00,37.0,34.0,29.64,SSE,167,12.0,21.0,87,0.05,,,0.60,,2013-03-24 15:22:00,
2013-03-24 11:33:00,37.0,34.0,29.62,SSE,158,6.0,22.0,87,0.04,,,0.61,,2013-03-24 15:33:00,
2013-03-24 11:43:00,37.0,34.0,29.62,SSE,158,6.0,22.0,87,0.04,,,0.61,,2013-03-24 15:43:00,
2013-03-24 11:53:00,37.0,34.0,29.62,South,189,9.0,16.0,87,0.02,,,0.61,,2013-03-24 15:53:00,
2013-03-24 12:03:00,37.0,34.0,29.62,South,189,9.0,16.0,87,0.02,,,0.61,,2013-03-24 16:03:00,
2013-03-24 12:13:00,37.0,34.0,29.62,South,189,9.0,16.0,87,0.02,,,0.61,,2013-03-24 16:13:00,
2013-03-24 12:23:00,36.0,32.0,29.62,SSE,151,6.0,18.0,86,0.02,,,0.62,,2013-03-24 16:23:00,
2013-03-24 12:33:00,36.0,32.0,29.61,SE,141,4.0,17.0,86,0.01,,,0.62,,2013-03-24 16:33:00,
2013-03-24 12:43:00,36.0,32.0,29.61,SE,141,4.0,17.0,86,0.01,,,0.62,,2013-03-24 16:43:00,
2013-03-24 12:52:00,36.0,32.0,29.61,SE,141,4.0,17.0,86,0.01,,,0.62,,2013-03-24 16:52:00,
2013-03-24 13:02:00,36.0,33.0,29.59,SSE,147,4.0,14.0,87,0.05,,,0.66,,2013-03-24 17:02:00,
2013-03-24 13:12:00,36.0,33.0,29.59,SSE,147,4.0,14.0,87,0.05,,,0.66,,2013-03-24 17:12:00,
2013-03-24 13:23:00,36.0,33.0,29.59,SSE,147,4.0,14.0,87,0.05,,,0.66,,2013-03-24 17:23:00,
2013-03-24 13:33:00,36.0,33.0,29.59,SSE,147,4.0,14.0,87,0.05,,,0.66,,2013-03-24 17:33:00,
2013-03-24 13:42:00,36.0,33.0,29.59,SSE,147,4.0,14.0,87,0.05,,,0.66,,2013-03-24 17:42:00,
2013-03-24 13:53:00,37.0,34.0,29.56,SSE,157,4.0,12.0,87,0.04,,,0.68,,2013-03-24 17:53:00,
2013-03-24 14:03:00,37.0,34.0,29.55,SSW,200,2.0,12.0,87,0.02,,,0.68,,2013-03-24 18:03:00,
2013-03-24 14:12:00,37.0,34.0,29.55,SSW,200,2.0,12.0,87,0.02,,,0.68,,2013-03-24 18:12:00,
2013-03-24 14:22:00,37.0,34.0,29.56,SSW,208,1.0,10.0,87,0.03,,,0.70,,2013-03-24 18:22:00,
2013-03-24 14:33:00,37.0,34.0,29.56,SSW,213,2.0,3.0,87,0.07,,,0.74,,2013-03-24 18:33:00,
2013-03-24 14:43:00,37.0,34.0,29.56,SSW,213,2.0,3.0,87,0.07,,,0.74,,2013-03-24 18:43:00,
2013-03-24 14:52:00,37.0,34.0,29.56,SSW,213,2.0,3.0,87,0.07,,,0.74,,2013-03-24 18:52:00,
2013-03-24 15:02:00,36.0,33.0,29.52,ESE,113,3.0,6.0,89,0.13,,,0.81,,2013-03-24 19:02:00,
2013-03-24 15:12:00,36.0,33.0,29.52,ESE,113,3.0,6.0,89,0.13,,,0.81,,2013-03-24 19:12:00,
2013-03-24 15:23:00,39.0,37.0,29.48,SW,215,2.0,12.0,91,0.11,,,0.81,,2013-03-24 19:23:00,
2013-03-24 15:32:00,40.0,37.0,29.49,SE,142,5.0,12.0,90,0.07,,,0.81,,2013-03-24 19:32:00,
2013-03-24 15:42:00,40.0,37.0,29.49,SE,142,5.0,12.0,90,0.07,,,0.81,,2013-03-24 19:42:00,
2013-03-24 15:53:00,40.0,36.0,29.48,SSE,156,6.0,13.0,87,0.03,,,0.81,,2013-03-24 19:53:00,
2013-03-24 16:03:00,41.0,37.0,29.47,SSW,196,9.0,16.0,84,0.00,,,0.81,,2013-03-24 20:03:00,
2013-03-24 16:12:00,41.0,37.0,29.47,SSW,196,9.0,16.0,84,0.00,,,0.81,,2013-03-24 20:12:00,
2013-03-24 16:22:00,40.0,36.0,29.47,ESE,122,6.0,20.0,84,0.00,,,0.81,,2013-03-24 20:22:00,
2013-03-24 16:32:00,41.0,37.0,29.45,SSW,196,6.0,14.0,84,0.00,,,0.81,,2013-03-24 20:32:00,
2013-03-24 16:42:00,41.0,37.0,29.45,SSW,196,6.0,14.0,84,0.00,,,0.81,,2013-03-24 20:42:00,
2013-03-24 16:53:00,41.0,37.0,29.45,SSW,196,6.0,14.0,84,0.00,,,0.81,,2013-03-24 20:53:00,
2013-03-24 17:02:00,41.0,37.0,29.45,SSW,196,6.0,14.0,84,0.00,,,0.81,,2013-03-24 21:02:00,
2013-03-24 17:12:00,41.0,37.0,29.45,SSW,196,6.0,14.0,84,0.00,,,0.81,,2013-03-24 21:12:00,
2013-03-24 18:03:00,38.0,35.0,29.43,SSW,196,6.0,20.0,88,0.00,,,0.81,,2013-03-24 22:03:00,
2013-03-24 18:13:00,37.0,34.0,29.44,SE,135,5.0,22.0,89,0.00,,,0.81,,2013-03-24 22:13:00,
2013-03-24 18:23:00,37.0,34.0,29.44,SE,135,5.0,22.0,89,0.00,,,0.81,,2013-03-24 22:23:00,
2013-03-24 18:33:00,37.0,34.0,29.44,South,171,5.0,21.0,90,0.00,,,0.81,,2013-03-24 22:33:00,
2013-03-24 18:43:00,37.0,34.0,29.44,South,171,5.0,21.0,90,0.00,,,0.81,,2013-03-24 22:43:00,
2013-03-24 18:53:00,37.0,34.0,29.45,SSE,147,7.0,14.0,90,0.00,,,0.81,,2013-03-24 22:53:00,
2013-03-24 19:03:00,37.0,34.0,29.45,ENE,63,1.0,16.0,90,0.00,,,0.81,,2013-03-24 23:03:00,
2013-03-24 19:12:00,37.0,34.0,29.45,ENE,63,1.0,16.0,90,0.00,,,0.81,,2013-03-24 23:12:00,
2013-03-24 19:22:00,37.0,34.0,29.46,East,99,3.0,7.0,90,0.00,,,0.81,,2013-03-24 23:22:00,
2013-03-24 19:32:00,37.0,34.0,29.46,East,99,3.0,7.0,90,0.00,,,0.81,,2013-03-24 23:32:00,
2013-03-24 19:42:00,37.0,34.0,29.46,East,99,3.0,7.0,90,0.00,,,0.81,,2013-03-24 23:42:00,
2013-03-24 19:53:00,36.0,33.0,29.48,SSE,155,0.0,9.0,90,0.00,,,0.81,,2013-03-24 23:53:00,
2013-03-24 20:02:00,36.0,33.0,29.49,ESE,117,4.0,7.0,90,0.00,,,0.81,,2013-03-25 00:02:00,
2013-03-24 20:12:00,36.0,33.0,29.49,ESE,117,4.0,7.0,90,0.00,,,0.81,,2013-03-25 00:12:00,
2013-03-24 20:22:00,36.0,33.0,29.48,ENE,57,0.0,12.0,90,0.00,,,0.81,,2013-03-25 00:22:00,
2013-03-24 20:32:00,35.0,32.0,29.47,SE,131,5.0,16.0,90,0.00,,,0.81,,2013-03-25 00:32:00,
2013-03-24 20:42:00,35.0,32.0,29.47,SE,131,5.0,16.0,90,0.00,,,0.81,,2013-03-25 00:42:00,
2013-03-24 20:53:00,35.0,32.0,29.46,South,177,5.0,17.0,89,0.00,,,0.81,,2013-03-25 00:53:00,
2013-03-24 21:00:00,34.0,31.0,29.46,SSE,165,6.0,15.0,88,0.00,,,0.81,,2013-03-25 01:00:00,
2013-03-24 21:02:00,35.0,32.0,29.46,South,177,5.0,17.0,89,0.00,,,0.81,,2013-03-25 01:02:00,
2013-03-24 21:12:00,35.0,32.0,29.46,South,177,5.0,17.0,89,0.00,,,0.81,,2013-03-25 01:12:00,
2013-03-24 21:22:00,34.0,31.0,29.46,SSE,165,6.0,15.0,88,0.00,,,0.81,,2013-03-25 01:22:00,
2013-03-24 21:32:00,34.0,31.0,29.46,SSE,165,6.0,15.0,88,0.00,,,0.81,,2013-03-25 01:32:00,
2013-03-24 21:42:00,34.0,31.0,29.46,SSE,165,6.0,15.0,88,0.00,,,0.81,,2013-03-25 01:42:00,
2013-03-24 21:52:00,34.0,31.0,29.46,SSE,165,6.0,15.0,88,0.00,,,0.81,,2013-03-25 01:52:00,
2013-03-24 22:23:00,34.0,31.0,29.47,South,191,6.0,20.0,88,0.00,,,0.81,,2013-03-25 02:23:00,
2013-03-24 22:33:00,34.0,31.0,29.47,South,191,6.0,20.0,88,0.00,,,0.81,,2013-03-25 02:33:00,
2013-03-24 22:43:00,34.0,31.0,29.47,South,191,6.0,20.0,88,0.00,,,0.81,,2013-03-25 02:43:00,
2013-03-24 22:52:00,34.0,31.0,29.47,South,191,6.0,20.0,88,0.00,,,0.81,,2013-03-25 02:52:00,
2013-03-24 23:02:00,33.0,30.0,29.50,ESE,115,0.0,3.0,89,0.01,,,0.82,,2013-03-25 03:02:00,
2013-03-24 23:13:00,33.0,30.0,29.50,ESE,115,0.0,3.0,89,0.01,,,0.82,,2013-03-25 03:13:00,
2013-03-24 23:23:00,33.0,30.0,29.49,ESE,115,0.0,0.0,90,0.01,,,0.82,,2013-03-25 03:23:00,
2013-03-24 23:34:00,33.0,30.0,29.50,ESE,114,0.0,0.0,90,0.00,,,0.82,,2013-03-25 03:34:00,
2013-03-24 23:43:00,33.0,30.0,29.50,ESE,114,0.0,0.0,90,0.00,,,0.82,,2013-03-25 03:43:00,
2013-03-24 23:53:00,33.0,30.0,29.50,ESE,114,0.0,0.0,90,0.00,,,0.82,,2013-03-25 03:53:00,